createdAt,value
2023-02-11T00:00:18.789Z,98.32
2023-02-11T00:02:47.824Z,101.05
2023-02-11T00:05:14.860Z,104.63
2023-02-11T00:07:41.415Z,91.07
2023-02-11T00:10:08.498Z,98.88
2023-02-11T00:12:39.606Z,101.35
2023-02-11T00:15:07.816Z,106.15
2023-02-11T00:17:34.362Z,105.25
2023-02-11T00:20:00.944Z,99.93
2023-02-11T00:22:27.853Z,118.10
2023-02-11T00:24:54.464Z,104.95
2023-02-11T00:27:21.018Z,105.00
2023-02-11T00:29:47.588Z,98.35
2023-02-11T00:32:14.491Z,105.13
2023-02-11T00:34:41.116Z,97.30
2023-02-11T00:37:07.780Z,105.78
2023-02-11T00:39:34.337Z,98.93
2023-02-11T00:42:00.873Z,118.57
2023-02-11T00:44:27.430Z,103.47
2023-02-11T00:46:54.074Z,102.32
2023-02-11T00:49:20.742Z,102.07
2023-02-11T00:51:47.378Z,95.82
2023-02-11T00:54:13.894Z,104.47
2023-02-11T00:56:40.420Z,99.70
2023-02-11T00:59:06.960Z,103.97
2023-02-11T01:01:34.783Z,98.18
2023-02-11T01:04:01.518Z,97.03
2023-02-11T01:06:28.131Z,109.88
2023-02-11T01:08:54.843Z,101.15
2023-02-11T01:11:22.432Z,96.78
2023-02-11T01:13:50.177Z,101.93
2023-02-11T01:16:19.003Z,103.30
2023-02-11T01:18:46.422Z,107.22
2023-02-11T01:21:13.215Z,103.47
2023-02-11T01:23:39.753Z,118.78
2023-02-11T01:26:06.334Z,104.80
2023-02-11T01:28:33.466Z,109.63
2023-02-11T01:31:01.577Z,106.75
2023-02-11T01:33:28.469Z,109.47
2023-02-11T01:35:55.417Z,107.03
2023-02-11T01:38:25.333Z,109.57
2023-02-11T01:41:12.840Z,115.38
2023-02-11T01:43:43.328Z,121.72
2023-02-11T01:46:30.055Z,106.20
2023-02-11T01:49:19.398Z,115.45
2023-02-11T01:51:58.208Z,118.55
2023-02-11T01:54:47.573Z,120.25
2023-02-11T01:57:25.140Z,112.20
2023-02-11T01:59:54.643Z,119.28
2023-02-11T02:02:27.227Z,120.47
2023-02-11T02:05:27.754Z,97.38
2023-02-11T02:08:03.305Z,110.88
2023-02-11T02:10:31.556Z,108.63
2023-02-11T02:12:58.158Z,107.38
2023-02-11T02:15:32.479Z,104.60
2023-02-11T02:18:14.116Z,109.55
2023-02-11T02:21:19.803Z,115.13
2023-02-11T02:23:46.273Z,117.30
2023-02-11T02:26:19.796Z,102.10
2023-02-11T02:29:11.162Z,110.63
2023-02-11T02:31:40.765Z,111.53
2023-02-11T02:34:20.063Z,108.95
2023-02-11T02:36:59.157Z,120.78
2023-02-11T02:39:31.559Z,110.43
2023-02-11T02:41:58.457Z,114.07
2023-02-11T02:44:25.403Z,118.22
2023-02-11T02:46:52.060Z,119.05
2023-02-11T02:49:21.023Z,109.55
2023-02-11T02:52:03.244Z,110.82
2023-02-11T02:54:48.451Z,109.00
2023-02-11T02:57:24.547Z,116.35
2023-02-11T02:59:53.935Z,106.45
2023-02-11T03:02:33.331Z,115.55
2023-02-11T03:05:06.015Z,121.32
2023-02-11T03:07:44.752Z,116.97
2023-02-11T03:10:19.487Z,116.18
2023-02-11T03:12:48.464Z,117.53
2023-02-11T03:15:18.341Z,112.85
2023-02-11T03:17:48.206Z,109.82
2023-02-11T03:20:18.050Z,131.30
2023-02-11T03:23:00.130Z,113.25
2023-02-11T03:25:34.835Z,117.50
2023-02-11T03:28:17.853Z,104.30
2023-02-11T03:30:55.300Z,112.60
2023-02-11T03:33:35.735Z,108.88
2023-02-11T03:36:18.146Z,108.65
2023-02-11T03:38:49.016Z,116.47
2023-02-11T03:41:18.086Z,122.05
2023-02-11T03:43:50.372Z,124.22
2023-02-11T03:46:21.171Z,121.85
2023-02-11T03:48:53.753Z,114.45
2023-02-11T03:51:22.552Z,110.55
2023-02-11T03:53:53.137Z,111.75
2023-02-11T03:56:22.141Z,113.47
2023-02-11T03:58:49.229Z,112.50
2023-02-11T04:01:16.042Z,122.25
2023-02-11T04:03:42.601Z,117.25
2023-02-11T04:06:09.231Z,119.22
2023-02-11T04:08:35.768Z,113.18
2023-02-11T04:11:02.318Z,117.28
2023-02-11T04:13:28.885Z,117.78
2023-02-11T04:15:55.679Z,109.85
2023-02-11T04:18:22.267Z,124.53
2023-02-11T04:20:50.336Z,113.03
2023-02-11T04:23:16.947Z,116.20
2023-02-11T04:25:43.459Z,114.93
2023-02-11T04:28:10.122Z,110.78
2023-02-11T04:30:36.779Z,109.40
2023-02-11T04:33:03.522Z,106.22
2023-02-11T04:35:30.120Z,111.32
2023-02-11T04:37:56.779Z,116.55
2023-02-11T04:40:23.320Z,105.95
2023-02-11T04:42:50.440Z,120.63
2023-02-11T04:45:16.963Z,114.40
2023-02-11T04:47:43.544Z,118.43
2023-02-11T04:50:10.236Z,115.90
2023-02-11T04:52:36.762Z,111.32
2023-02-11T04:55:03.355Z,111.57
2023-02-11T04:57:29.973Z,117.63
2023-02-11T04:59:56.546Z,110.35
2023-02-11T05:02:23.095Z,121.88
2023-02-11T05:04:49.622Z,107.07
2023-02-11T05:07:16.328Z,121.10
2023-02-11T05:09:42.852Z,118.03
2023-02-11T05:12:09.373Z,119.45
2023-02-11T05:14:35.927Z,120.32
2023-02-11T05:17:02.530Z,118.35
2023-02-11T05:19:29.153Z,118.50
2023-02-11T05:22:02.640Z,111.20
2023-02-11T05:24:31.752Z,118.17
2023-02-11T05:26:58.336Z,117.03
2023-02-11T05:29:24.870Z,123.10
2023-02-11T05:31:51.380Z,107.65
2023-02-11T05:34:17.961Z,126.47
2023-02-11T05:36:44.477Z,114.82
2023-02-11T05:39:11.223Z,118.53
2023-02-11T05:41:38.340Z,120.45
2023-02-11T05:44:04.970Z,111.78
2023-02-11T05:46:31.553Z,111.10
2023-02-11T05:48:58.513Z,109.68
2023-02-11T05:51:25.441Z,122.25
2023-02-11T05:53:52.065Z,114.97
2023-02-11T05:56:18.787Z,108.20
2023-02-11T05:58:45.414Z,112.28
2023-02-11T06:01:11.917Z,111.85
2023-02-11T06:03:38.486Z,106.22
2023-02-11T06:06:05.490Z,119.82
2023-02-11T06:08:32.086Z,109.88
2023-02-11T06:10:58.624Z,114.07
2023-02-11T06:13:25.175Z,126.30
2023-02-11T06:16:00.297Z,112.15
2023-02-11T06:18:26.967Z,107.95
2023-02-11T06:20:53.737Z,109.80
2023-02-11T06:23:20.881Z,126.18
2023-02-11T06:25:47.527Z,108.38
2023-02-11T06:28:14.101Z,111.07
2023-02-11T06:30:40.774Z,123.95
2023-02-11T06:33:07.554Z,114.43
2023-02-11T06:35:35.431Z,113.55
2023-02-11T06:38:02.232Z,124.30
2023-02-11T06:40:28.776Z,128.20
2023-02-11T06:42:55.484Z,105.82
2023-02-11T06:45:22.073Z,116.97
2023-02-11T06:47:51.293Z,114.38
2023-02-11T06:50:17.970Z,125.40
2023-02-11T06:52:44.619Z,115.47
2023-02-11T06:55:12.998Z,109.22
2023-02-11T06:57:39.555Z,114.75
2023-02-11T07:00:06.661Z,102.35
2023-02-11T07:02:33.199Z,112.13
2023-02-11T07:04:59.731Z,112.18
2023-02-11T07:07:27.751Z,112.45
2023-02-11T07:09:54.358Z,121.32
2023-02-11T07:12:20.936Z,108.00
2023-02-11T07:14:47.518Z,120.75
2023-02-11T07:17:14.678Z,113.85
2023-02-11T07:19:41.510Z,121.53
2023-02-11T07:22:08.007Z,113.78
2023-02-11T07:24:34.534Z,110.25
2023-02-11T07:27:01.008Z,116.68
2023-02-11T07:29:27.642Z,116.43
2023-02-11T07:31:54.406Z,115.55
2023-02-11T07:34:21.208Z,116.30
2023-02-11T07:36:49.078Z,130.38
2023-02-11T07:39:15.930Z,116.28
2023-02-11T07:41:43.106Z,126.57
2023-02-11T07:44:12.376Z,133.15
2023-02-11T07:46:43.175Z,117.82
2023-02-11T07:49:09.727Z,124.43
2023-02-11T07:51:36.345Z,129.23
2023-02-11T07:54:02.949Z,123.78
2023-02-11T07:56:30.267Z,127.35
2023-02-11T07:59:01.060Z,121.35
2023-02-11T08:01:28.860Z,133.68
2023-02-11T08:03:57.518Z,124.60
2023-02-11T08:06:26.325Z,133.25
2023-02-11T08:08:53.016Z,123.63
2023-02-11T08:11:25.161Z,116.13
2023-02-11T08:13:52.674Z,121.28
2023-02-11T08:16:27.997Z,123.88
2023-02-11T08:18:57.844Z,123.25
2023-02-11T08:21:25.217Z,130.60
2023-02-11T08:23:52.009Z,120.50
2023-02-11T08:26:21.159Z,130.13
2023-02-11T08:28:49.548Z,122.65
2023-02-11T08:31:24.552Z,156.75
2023-02-11T08:36:23.810Z,129.15
2023-02-11T08:38:50.423Z,130.35
2023-02-11T08:41:17.982Z,140.82
2023-02-11T08:43:45.496Z,134.18
2023-02-11T08:46:15.106Z,128.27
2023-02-11T08:48:42.284Z,129.20
2023-02-11T08:51:23.304Z,132.05
2023-02-11T08:53:50.515Z,132.52
2023-02-11T08:56:18.805Z,116.93
2023-02-11T08:58:45.626Z,119.30
2023-02-11T09:01:20.110Z,112.03
2023-02-11T09:03:48.725Z,141.27
2023-02-11T09:06:17.427Z,131.65
2023-02-11T09:08:46.618Z,135.00
2023-02-11T09:11:13.916Z,119.65
2023-02-11T09:13:42.417Z,107.00
2023-02-11T09:16:15.773Z,105.47
2023-02-11T09:18:42.360Z,96.78
2023-02-11T09:21:09.428Z,87.80
2023-02-11T09:23:36.279Z,87.53
2023-02-11T09:26:09.199Z,85.78
2023-02-11T09:28:36.488Z,86.50
2023-02-11T09:31:08.674Z,93.65
2023-02-11T09:33:36.388Z,83.82
2023-02-11T09:36:05.465Z,93.15
2023-02-11T09:38:32.942Z,94.20
2023-02-11T09:40:59.702Z,96.13
2023-02-11T09:43:46.948Z,102.78
2023-02-11T09:46:15.953Z,101.47
2023-02-11T09:48:45.799Z,109.32
2023-02-11T09:51:55.805Z,94.80
2023-02-11T09:54:36.680Z,95.55
2023-02-11T09:57:03.830Z,96.75
2023-02-11T09:59:30.348Z,87.18
2023-02-11T10:02:02.388Z,93.53
2023-02-11T10:04:53.411Z,98.68
2023-02-11T10:07:43.782Z,105.25
2023-02-11T10:10:19.760Z,96.35
2023-02-11T10:13:06.495Z,92.32
2023-02-11T10:15:52.205Z,108.70
2023-02-11T10:18:27.934Z,94.18
2023-02-11T10:21:08.811Z,89.57
2023-02-11T10:23:39.413Z,95.38
2023-02-11T10:26:13.712Z,100.45
2023-02-11T10:28:43.941Z,98.90
2023-02-11T10:31:18.678Z,106.85
2023-02-11T10:34:05.558Z,95.47
2023-02-11T10:36:38.800Z,98.65
2023-02-11T10:39:20.541Z,116.53
2023-02-11T10:41:57.912Z,92.85
2023-02-11T10:44:31.088Z,95.95
2023-02-11T10:47:01.890Z,95.65
2023-02-11T10:49:39.457Z,95.95
2023-02-11T10:52:17.914Z,90.75
2023-02-11T10:54:57.482Z,94.07
2023-02-11T10:57:46.864Z,92.47
2023-02-11T11:00:42.809Z,92.47
2023-02-11T11:03:19.946Z,94.93
2023-02-11T11:06:01.216Z,92.68
2023-02-11T11:08:50.379Z,87.05
2023-02-11T11:11:21.946Z,84.63
2023-02-11T11:14:01.201Z,83.97
2023-02-11T11:16:35.955Z,77.35
2023-02-11T11:19:08.359Z,82.15
2023-02-11T11:21:40.883Z,82.35
2023-02-11T11:24:17.987Z,75.68
2023-02-11T11:26:56.970Z,83.72
2023-02-11T11:29:27.768Z,79.82
2023-02-11T11:31:57.872Z,79.97
2023-02-11T11:34:32.422Z,93.55
2023-02-11T11:37:01.946Z,71.18
2023-02-11T11:39:33.185Z,80.57
2023-02-11T11:42:00.884Z,82.93
2023-02-11T11:44:29.570Z,80.70
2023-02-11T11:47:23.253Z,79.40
2023-02-11T11:50:18.963Z,77.43
2023-02-11T11:52:54.946Z,87.18
2023-02-11T11:55:42.615Z,83.32
2023-02-11T11:58:18.796Z,77.93
2023-02-11T12:01:14.447Z,75.25
2023-02-11T12:04:02.672Z,83.60
2023-02-11T12:07:03.298Z,71.65
2023-02-11T12:09:52.159Z,78.85
2023-02-11T12:12:21.556Z,78.63
2023-02-11T12:14:53.108Z,71.45
2023-02-11T12:17:52.440Z,77.55
2023-02-11T12:20:26.398Z,76.25
2023-02-11T12:23:04.977Z,69.00
2023-02-11T12:25:44.208Z,71.18
2023-02-11T12:28:34.701Z,67.43
2023-02-11T12:31:24.725Z,72.85
2023-02-11T12:34:18.951Z,79.72
2023-02-11T12:37:02.933Z,69.65
2023-02-11T12:39:47.974Z,73.85
2023-02-11T12:43:00.270Z,70.15
2023-02-11T12:45:42.672Z,69.43
2023-02-11T12:48:15.379Z,72.45
2023-02-11T12:51:20.718Z,76.97
2023-02-11T12:54:17.364Z,76.97
2023-02-11T12:56:51.132Z,73.38
2023-02-11T12:59:34.681Z,79.40
2023-02-11T13:02:09.788Z,87.75
2023-02-11T13:04:41.682Z,80.05
2023-02-11T13:07:31.648Z,82.32
2023-02-11T13:10:21.820Z,72.53
2023-02-11T13:13:10.116Z,80.50
2023-02-11T13:15:37.650Z,74.45
2023-02-11T13:18:14.036Z,78.40
2023-02-11T13:20:52.867Z,71.20
2023-02-11T13:23:26.036Z,70.03
2023-02-11T13:26:10.032Z,73.22
2023-02-11T13:29:03.746Z,66.78
2023-02-11T13:31:30.815Z,71.22
2023-02-11T13:33:57.464Z,70.95
2023-02-11T13:36:30.217Z,72.40
2023-02-11T13:38:58.609Z,67.32
2023-02-11T13:41:29.465Z,73.93
2023-02-11T13:44:00.216Z,72.93
2023-02-11T13:46:30.207Z,67.32
2023-02-11T13:48:57.857Z,59.38
2023-02-11T13:51:35.147Z,64.30
2023-02-11T13:54:02.796Z,62.53
2023-02-11T13:56:33.651Z,66.13
2023-02-11T13:59:02.854Z,58.85
2023-02-11T14:02:06.528Z,59.90
2023-02-11T14:04:52.213Z,66.72
2023-02-11T14:07:40.403Z,61.45
2023-02-11T14:10:41.736Z,57.30
2023-02-11T14:13:36.748Z,59.30
2023-02-11T14:16:08.051Z,59.30
2023-02-11T14:18:51.970Z,57.38
2023-02-11T14:21:27.945Z,61.22
2023-02-11T14:24:14.542Z,69.18
2023-02-11T14:27:24.052Z,68.45
2023-02-11T14:29:51.146Z,62.50
2023-02-11T14:32:23.406Z,71.47
2023-02-11T14:35:15.441Z,67.82
2023-02-11T14:38:07.492Z,69.15
2023-02-11T14:40:51.373Z,66.88
2023-02-11T14:43:26.775Z,70.40
2023-02-11T14:45:56.756Z,70.93
2023-02-11T14:48:35.069Z,69.00
2023-02-11T14:51:13.672Z,79.78
2023-02-11T14:53:45.956Z,69.50
2023-02-11T14:56:34.840Z,63.33
2023-02-11T14:59:02.790Z,57.17
2023-02-11T15:01:33.981Z,63.78
2023-02-11T15:04:03.020Z,64.60
2023-02-11T15:06:34.011Z,56.70
2023-02-11T15:09:02.859Z,57.60
2023-02-11T15:11:34.596Z,57.38
2023-02-11T15:14:11.161Z,57.80
2023-02-11T15:16:46.263Z,62.47
2023-02-11T15:19:29.032Z,62.50
2023-02-11T15:21:56.992Z,55.65
2023-02-11T15:24:25.714Z,56.67
2023-02-11T15:27:15.631Z,60.63
2023-02-11T15:30:00.114Z,55.72
2023-02-11T15:32:45.966Z,53.42
2023-02-11T15:35:30.612Z,53.05
2023-02-11T15:37:58.988Z,48.38
2023-02-11T15:40:28.984Z,52.72
2023-02-11T15:42:59.066Z,49.13
2023-02-11T15:45:38.245Z,55.53
2023-02-11T15:48:20.514Z,56.53
2023-02-11T15:50:59.093Z,55.78
2023-02-11T15:53:28.963Z,59.20
2023-02-11T15:56:30.726Z,52.60
2023-02-11T15:59:02.786Z,52.30
2023-02-11T16:01:47.871Z,56.33
2023-02-11T16:04:29.686Z,49.17
2023-02-11T16:06:56.842Z,55.45
2023-02-11T16:09:36.408Z,55.05
2023-02-11T16:12:22.460Z,55.80
2023-02-11T16:14:49.079Z,56.38
2023-02-11T16:17:18.546Z,50.45
2023-02-11T16:19:47.882Z,53.03
2023-02-11T16:22:25.289Z,52.15
2023-02-11T16:24:54.125Z,53.58
2023-02-11T16:27:20.618Z,50.03
2023-02-11T16:29:49.148Z,53.67
2023-02-11T16:32:19.299Z,52.17
2023-02-11T16:34:46.351Z,50.58
2023-02-11T16:37:13.007Z,49.97
2023-02-11T16:39:39.623Z,51.97
2023-02-11T16:42:08.976Z,49.47
2023-02-11T16:44:35.729Z,48.70
2023-02-11T16:47:04.325Z,47.65
2023-02-11T16:49:34.986Z,50.30
2023-02-11T16:52:06.235Z,51.90
2023-02-11T16:54:32.869Z,43.55
2023-02-11T16:56:59.711Z,53.35
2023-02-11T16:59:26.259Z,55.42
2023-02-11T17:01:54.834Z,54.97
2023-02-11T17:04:25.631Z,61.15
2023-02-11T17:06:52.372Z,54.38
2023-02-11T17:09:21.727Z,57.55
2023-02-11T17:11:48.856Z,56.72
2023-02-11T17:14:15.606Z,62.38
2023-02-11T17:16:43.409Z,61.67
2023-02-11T17:19:13.347Z,57.53
2023-02-11T17:21:43.855Z,58.75
2023-02-11T17:24:11.378Z,57.25
2023-02-11T17:26:39.068Z,54.95
2023-02-11T17:29:07.567Z,60.67
2023-02-11T17:31:35.330Z,52.05
2023-02-11T17:34:02.602Z,55.33
2023-02-11T17:36:31.373Z,53.15
2023-02-11T17:38:58.896Z,56.88
2023-02-11T17:41:26.109Z,56.17
2023-02-11T17:43:53.227Z,56.53
2023-02-11T17:46:20.058Z,57.50
2023-02-11T17:48:46.937Z,59.38
2023-02-11T17:51:33.895Z,53.67
2023-02-11T17:54:05.016Z,60.53
2023-02-11T17:56:33.713Z,61.58
2023-02-11T17:59:02.509Z,72.10
2023-02-11T18:01:30.989Z,63.38
2023-02-11T18:03:57.892Z,60.88
2023-02-11T18:06:25.152Z,71.88
2023-02-11T18:08:52.268Z,59.92
2023-02-11T18:11:19.015Z,59.05
2023-02-11T18:13:45.647Z,57.90
2023-02-11T18:16:15.750Z,56.53
2023-02-11T18:18:46.687Z,51.50
2023-02-11T18:21:16.257Z,57.88
2023-02-11T18:23:43.070Z,60.35
2023-02-11T18:26:14.431Z,63.15
2023-02-11T18:28:43.282Z,66.00
2023-02-11T18:31:12.678Z,56.05
2023-02-11T18:33:40.901Z,63.38
2023-02-11T18:36:13.261Z,52.45
2023-02-11T18:38:40.471Z,51.78
2023-02-11T18:41:09.906Z,74.85
2023-02-11T18:43:40.230Z,70.75
2023-02-11T18:46:13.077Z,103.35
2023-02-11T18:48:40.386Z,86.65
2023-02-11T18:51:12.715Z,69.10
2023-02-11T18:53:39.771Z,65.45
2023-02-11T18:56:12.265Z,71.15
2023-02-11T18:58:39.461Z,78.07
2023-02-11T19:01:22.302Z,73.25
2023-02-11T19:03:49.095Z,70.32
2023-02-11T19:06:23.615Z,65.85
2023-02-11T19:08:50.566Z,67.78
2023-02-11T19:11:19.871Z,70.78
2023-02-11T19:13:48.136Z,70.90
2023-02-11T19:16:16.854Z,60.30
2023-02-11T19:18:43.552Z,60.75
2023-02-11T19:21:11.283Z,53.75
2023-02-11T19:23:38.402Z,51.95
2023-02-11T19:26:06.546Z,48.80
2023-02-11T19:28:34.248Z,50.85
2023-02-11T19:31:08.896Z,52.88
2023-02-11T19:33:36.164Z,47.65
2023-02-11T19:36:08.359Z,55.15
2023-02-11T19:38:36.212Z,57.30
2023-02-11T19:41:02.883Z,51.53
2023-02-11T19:43:29.533Z,52.40
2023-02-11T19:45:57.359Z,48.50
2023-02-11T19:48:25.208Z,49.05
2023-02-11T19:50:51.801Z,49.72
2023-02-11T19:53:18.490Z,47.08
2023-02-11T19:55:45.048Z,46.72
2023-02-11T19:58:11.776Z,53.70
2023-02-11T20:00:39.296Z,58.08
2023-02-11T20:03:06.100Z,62.10
2023-02-11T20:05:32.928Z,51.17
2023-02-11T20:07:59.479Z,54.83
2023-02-11T20:10:26.708Z,56.22
2023-02-11T20:12:53.245Z,48.45
2023-02-11T20:15:19.733Z,47.78
2023-02-11T20:17:46.238Z,50.80
2023-02-11T20:20:13.005Z,46.40
2023-02-11T20:22:39.592Z,44.25
2023-02-11T20:25:06.773Z,44.92
2023-02-11T20:27:33.448Z,46.00
2023-02-11T20:30:00.061Z,45.97
2023-02-11T20:32:26.652Z,48.78
2023-02-11T20:34:53.370Z,46.83
2023-02-11T20:37:19.979Z,49.25
2023-02-11T20:39:46.504Z,46.15
2023-02-11T20:42:14.373Z,51.35
2023-02-11T20:44:41.295Z,54.15
2023-02-11T20:47:07.836Z,45.90
2023-02-11T20:49:34.421Z,48.42
2023-02-11T20:52:01.001Z,53.15
2023-02-11T20:54:27.832Z,50.63
2023-02-11T20:56:55.421Z,55.03
2023-02-11T20:59:22.782Z,46.30
2023-02-11T21:01:53.484Z,47.08
2023-02-11T21:04:29.530Z,43.33
2023-02-11T21:06:59.687Z,49.15
2023-02-11T21:09:28.969Z,46.38
2023-02-11T21:11:55.928Z,46.80
2023-02-11T21:14:24.131Z,41.22
2023-02-11T21:16:51.218Z,42.92
2023-02-11T21:19:18.516Z,44.17
2023-02-11T21:21:45.590Z,40.50
2023-02-11T21:24:12.774Z,46.58
2023-02-11T21:26:39.403Z,43.90
2023-02-11T21:29:07.318Z,45.47
2023-02-11T21:31:34.724Z,43.92
2023-02-11T21:34:01.727Z,42.38
2023-02-11T21:36:29.341Z,47.85
2023-02-11T21:38:56.321Z,40.33
2023-02-11T21:41:23.186Z,41.28
2023-02-11T21:43:51.046Z,44.78
2023-02-11T21:46:18.952Z,38.25
2023-02-11T21:48:45.858Z,42.85
2023-02-11T21:51:18.426Z,44.60
2023-02-11T21:53:45.444Z,46.55
2023-02-11T21:56:17.406Z,45.55
2023-02-11T21:58:45.330Z,39.67
2023-02-11T22:01:14.309Z,40.60
2023-02-11T22:03:41.262Z,41.83
2023-02-11T22:06:13.006Z,38.58
2023-02-11T22:08:40.234Z,41.88
2023-02-11T22:11:09.481Z,41.22
2023-02-11T22:13:37.254Z,48.75
2023-02-11T22:16:07.399Z,42.95
2023-02-11T22:18:34.172Z,37.17
2023-02-11T22:21:06.245Z,38.72
2023-02-11T22:23:33.613Z,44.20
2023-02-11T22:26:07.590Z,34.70
2023-02-11T22:28:35.630Z,39.70
2023-02-11T22:31:02.500Z,40.50
2023-02-11T22:33:29.179Z,39.85
2023-02-11T22:36:07.237Z,36.95
2023-02-11T22:38:34.685Z,36.65
2023-02-11T22:41:05.930Z,40.88
2023-02-11T22:43:32.563Z,37.60
2023-02-11T22:46:03.085Z,37.88
2023-02-11T22:48:29.821Z,37.17
2023-02-11T22:50:56.629Z,36.95
2023-02-11T22:53:25.543Z,38.22
2023-02-11T22:55:52.426Z,38.03
2023-02-11T22:58:19.102Z,36.10
2023-02-11T23:00:46.198Z,38.72
2023-02-11T23:03:13.565Z,42.13
2023-02-11T23:05:42.041Z,37.45
2023-02-11T23:08:10.783Z,37.35
2023-02-11T23:10:39.290Z,45.38
2023-02-11T23:13:07.422Z,36.45
2023-02-11T23:15:34.455Z,34.33
2023-02-11T23:18:01.091Z,36.47
2023-02-11T23:20:27.710Z,34.42
2023-02-11T23:22:54.388Z,35.92
2023-02-11T23:25:21.065Z,37.55
2023-02-11T23:27:47.828Z,37.60
2023-02-11T23:30:14.736Z,33.92
2023-02-11T23:32:41.246Z,33.72
2023-02-11T23:35:08.082Z,36.88
2023-02-11T23:37:34.762Z,33.85
2023-02-11T23:40:01.260Z,37.30
2023-02-11T23:42:29.205Z,36.22
2023-02-11T23:44:55.900Z,35.30
2023-02-11T23:47:22.540Z,31.88
2023-02-11T23:49:49.095Z,32.92
2023-02-11T23:52:15.637Z,34.90
2023-02-11T23:54:43.444Z,33.13
2023-02-11T23:57:10.109Z,33.90
2023-02-11T23:59:36.672Z,35.20
